Terminal Aerodrome Forecast
Issued by NWS

Home | Current Version | Previous Version | Text Only | Print | Product List | Glossary On
Versions: 1 2 3 4 5 6 7 8 9 10 11 12 13 14
000
FTUS45 KTFX 300543
TAFHVR
TAF
KHVR 300543Z 3006/3106 16007KT P6SM SCT090 BKN150
     FM301400 26012KT P6SM OVC060
     FM301900 30018G28KT P6SM -RA SCT015 OVC035
     FM310300 32018KT P6SM OVC040=

USA.gov is the U.S. government's official web portal to all federal, state and local government web resources and services.